sensor_id;sensor_type;location;lat;lon;timestamp;P1;durP1;ratioP1;P2;durP2;ratioP2
20283;SDS011;10301;50.832;4.080;2023-06-10T00:00:12;11.50;;;6.90;;
20283;SDS011;10301;50.832;4.080;2023-06-10T00:02:40;10.02;;;7.60;;
20283;SDS011;10301;50.832;4.080;2023-06-10T00:05:07;9.23;;;7.38;;
20283;SDS011;10301;50.832;4.080;2023-06-10T00:07:33;10.30;;;6.95;;
20283;SDS011;10301;50.832;4.080;2023-06-10T00:10:03;9.35;;;7.20;;
20283;SDS011;10301;50.832;4.080;2023-06-10T00:12:31;12.32;;;7.30;;
20283;SDS011;10301;50.832;4.080;2023-06-10T00:15:02;9.98;;;7.35;;
20283;SDS011;10301;50.832;4.080;2023-06-10T00:17:29;9.98;;;7.50;;
20283;SDS011;10301;50.832;4.080;2023-06-10T00:19:55;9.77;;;7.35;;
20283;SDS011;10301;50.832;4.080;2023-06-10T00:22:22;11.88;;;7.22;;
20283;SDS011;10301;50.832;4.080;2023-06-10T00:24:49;13.07;;;7.50;;
20283;SDS011;10301;50.832;4.080;2023-06-10T00:27:15;10.10;;;6.85;;
20283;SDS011;10301;50.832;4.080;2023-06-10T00:29:41;11.23;;;7.68;;
20283;SDS011;10301;50.832;4.080;2023-06-10T00:32:07;13.45;;;7.93;;
20283;SDS011;10301;50.832;4.080;2023-06-10T00:34:33;10.73;;;7.85;;
20283;SDS011;10301;50.832;4.080;2023-06-10T00:36:59;10.65;;;8.93;;
20283;SDS011;10301;50.832;4.080;2023-06-10T00:39:24;10.25;;;7.20;;
20283;SDS011;10301;50.832;4.080;2023-06-10T00:41:50;10.80;;;7.43;;
20283;SDS011;10301;50.832;4.080;2023-06-10T00:44:16;12.27;;;7.65;;
20283;SDS011;10301;50.832;4.080;2023-06-10T00:46:42;11.48;;;7.78;;
20283;SDS011;10301;50.832;4.080;2023-06-10T00:49:08;12.18;;;8.15;;
20283;SDS011;10301;50.832;4.080;2023-06-10T00:51:34;11.00;;;8.02;;
20283;SDS011;10301;50.832;4.080;2023-06-10T00:54:01;12.20;;;7.90;;
20283;SDS011;10301;50.832;4.080;2023-06-10T00:56:27;11.57;;;8.13;;
20283;SDS011;10301;50.832;4.080;2023-06-10T00:58:53;11.77;;;7.38;;
20283;SDS011;10301;50.832;4.080;2023-06-10T01:01:19;11.70;;;7.45;;
20283;SDS011;10301;50.832;4.080;2023-06-10T01:03:45;11.05;;;8.10;;
20283;SDS011;10301;50.832;4.080;2023-06-10T01:09:02;11.30;;;7.63;;
20283;SDS011;10301;50.832;4.080;2023-06-10T01:11:52;13.38;;;8.02;;
20283;SDS011;10301;50.832;4.080;2023-06-10T01:14:34;13.07;;;7.80;;
20283;SDS011;10301;50.832;4.080;2023-06-10T01:17:01;13.25;;;8.05;;
20283;SDS011;10301;50.832;4.080;2023-06-10T01:19:28;12.25;;;8.20;;
20283;SDS011;10301;50.832;4.080;2023-06-10T01:21:56;10.75;;;8.02;;
20283;SDS011;10301;50.832;4.080;2023-06-10T01:24:26;11.73;;;8.35;;
20283;SDS011;10301;50.832;4.080;2023-06-10T01:26:53;13.07;;;8.55;;
20283;SDS011;10301;50.832;4.080;2023-06-10T01:29:46;11.43;;;7.82;;
20283;SDS011;10301;50.832;4.080;2023-06-10T01:34:59;11.73;;;8.75;;
20283;SDS011;10301;50.832;4.080;2023-06-10T01:37:26;13.98;;;8.23;;
20283;SDS011;10301;50.832;4.080;2023-06-10T01:39:54;11.23;;;8.98;;
20283;SDS011;10301;50.832;4.080;2023-06-10T01:42:22;13.40;;;8.80;;
20283;SDS011;10301;50.832;4.080;2023-06-10T01:44:49;11.80;;;8.48;;
20283;SDS011;10301;50.832;4.080;2023-06-10T01:47:15;11.95;;;8.52;;
20283;SDS011;10301;50.832;4.080;2023-06-10T01:49:41;14.75;;;9.32;;
20283;SDS011;10301;50.832;4.080;2023-06-10T01:52:07;13.15;;;8.30;;
20283;SDS011;10301;50.832;4.080;2023-06-10T01:54:33;11.20;;;8.77;;
20283;SDS011;10301;50.832;4.080;2023-06-10T01:56:59;15.93;;;9.23;;
20283;SDS011;10301;50.832;4.080;2023-06-10T01:59:26;11.57;;;8.25;;
20283;SDS011;10301;50.832;4.080;2023-06-10T02:01:51;13.77;;;9.23;;
20283;SDS011;10301;50.832;4.080;2023-06-10T02:04:17;15.18;;;8.60;;
20283;SDS011;10301;50.832;4.080;2023-06-10T02:06:43;17.75;;;9.25;;
20283;SDS011;10301;50.832;4.080;2023-06-10T02:09:10;12.07;;;8.82;;
20283;SDS011;10301;50.832;4.080;2023-06-10T02:11:35;12.05;;;9.13;;
20283;SDS011;10301;50.832;4.080;2023-06-10T02:14:01;15.98;;;9.35;;
20283;SDS011;10301;50.832;4.080;2023-06-10T02:16:27;12.30;;;9.43;;
20283;SDS011;10301;50.832;4.080;2023-06-10T02:18:53;11.27;;;8.73;;
20283;SDS011;10301;50.832;4.080;2023-06-10T02:21:19;12.70;;;8.88;;
20283;SDS011;10301;50.832;4.080;2023-06-10T02:23:45;12.00;;;8.85;;
20283;SDS011;10301;50.832;4.080;2023-06-10T02:26:11;10.25;;;9.10;;
20283;SDS011;10301;50.832;4.080;2023-06-10T02:28:36;16.40;;;9.13;;
20283;SDS011;10301;50.832;4.080;2023-06-10T02:31:02;11.57;;;8.50;;
20283;SDS011;10301;50.832;4.080;2023-06-10T02:33:28;12.93;;;9.25;;
20283;SDS011;10301;50.832;4.080;2023-06-10T02:35:55;10.80;;;8.88;;
20283;SDS011;10301;50.832;4.080;2023-06-10T02:38:21;10.73;;;8.05;;
20283;SDS011;10301;50.832;4.080;2023-06-10T02:40:46;11.38;;;9.30;;
20283;SDS011;10301;50.832;4.080;2023-06-10T02:43:12;12.57;;;9.35;;
20283;SDS011;10301;50.832;4.080;2023-06-10T02:45:38;13.13;;;9.30;;
20283;SDS011;10301;50.832;4.080;2023-06-10T02:48:03;14.00;;;9.00;;
20283;SDS011;10301;50.832;4.080;2023-06-10T02:50:29;13.48;;;9.35;;
20283;SDS011;10301;50.832;4.080;2023-06-10T02:52:55;12.73;;;8.82;;
20283;SDS011;10301;50.832;4.080;2023-06-10T02:55:20;10.77;;;8.90;;
20283;SDS011;10301;50.832;4.080;2023-06-10T02:57:46;12.18;;;9.57;;
20283;SDS011;10301;50.832;4.080;2023-06-10T03:00:12;10.40;;;8.82;;
20283;SDS011;10301;50.832;4.080;2023-06-10T03:02:39;13.05;;;8.63;;
20283;SDS011;10301;50.832;4.080;2023-06-10T03:05:05;14.10;;;9.95;;
20283;SDS011;10301;50.832;4.080;2023-06-10T03:07:34;14.73;;;8.80;;
20283;SDS011;10301;50.832;4.080;2023-06-10T03:10:01;11.15;;;9.10;;
20283;SDS011;10301;50.832;4.080;2023-06-10T03:12:26;13.95;;;9.90;;
20283;SDS011;10301;50.832;4.080;2023-06-10T03:14:52;12.27;;;10.18;;
20283;SDS011;10301;50.832;4.080;2023-06-10T03:17:17;12.57;;;9.02;;
20283;SDS011;10301;50.832;4.080;2023-06-10T03:19:43;14.10;;;8.95;;
20283;SDS011;10301;50.832;4.080;2023-06-10T03:24:35;13.82;;;9.00;;
20283;SDS011;10301;50.832;4.080;2023-06-10T03:27:04;16.50;;;9.43;;
20283;SDS011;10301;50.832;4.080;2023-06-10T03:29:31;12.75;;;10.07;;
20283;SDS011;10301;50.832;4.080;2023-06-10T03:31:57;14.10;;;9.63;;
20283;SDS011;10301;50.832;4.080;2023-06-10T03:34:23;12.30;;;9.43;;
20283;SDS011;10301;50.832;4.080;2023-06-10T03:36:48;14.43;;;9.20;;
20283;SDS011;10301;50.832;4.080;2023-06-10T03:39:14;16.88;;;10.00;;
20283;SDS011;10301;50.832;4.080;2023-06-10T03:41:40;12.50;;;9.55;;
20283;SDS011;10301;50.832;4.080;2023-06-10T03:44:06;13.05;;;9.45;;
20283;SDS011;10301;50.832;4.080;2023-06-10T03:46:32;12.10;;;9.55;;
20283;SDS011;10301;50.832;4.080;2023-06-10T03:48:57;13.07;;;10.30;;
20283;SDS011;10301;50.832;4.080;2023-06-10T03:51:25;12.48;;;9.95;;
20283;SDS011;10301;50.832;4.080;2023-06-10T03:53:51;14.23;;;9.85;;
20283;SDS011;10301;50.832;4.080;2023-06-10T03:56:17;12.63;;;9.38;;
20283;SDS011;10301;50.832;4.080;2023-06-10T03:58:43;11.18;;;9.57;;
20283;SDS011;10301;50.832;4.080;2023-06-10T04:01:08;20.50;;;9.80;;
20283;SDS011;10301;50.832;4.080;2023-06-10T04:03:35;14.02;;;9.90;;
20283;SDS011;10301;50.832;4.080;2023-06-10T04:06:01;15.35;;;9.48;;
20283;SDS011;10301;50.832;4.080;2023-06-10T04:08:27;14.50;;;10.20;;
20283;SDS011;10301;50.832;4.080;2023-06-10T04:10:54;13.50;;;10.10;;
20283;SDS011;10301;50.832;4.080;2023-06-10T04:13:19;12.77;;;10.18;;
20283;SDS011;10301;50.832;4.080;2023-06-10T04:15:45;13.40;;;10.77;;
20283;SDS011;10301;50.832;4.080;2023-06-10T04:18:11;13.95;;;10.15;;
20283;SDS011;10301;50.832;4.080;2023-06-10T04:20:36;16.80;;;10.82;;
20283;SDS011;10301;50.832;4.080;2023-06-10T04:23:02;13.57;;;10.35;;
20283;SDS011;10301;50.832;4.080;2023-06-10T04:25:28;13.07;;;10.88;;
20283;SDS011;10301;50.832;4.080;2023-06-10T04:27:54;13.57;;;11.00;;
20283;SDS011;10301;50.832;4.080;2023-06-10T04:30:20;12.20;;;9.85;;
20283;SDS011;10301;50.832;4.080;2023-06-10T04:32:46;17.10;;;10.93;;
20283;SDS011;10301;50.832;4.080;2023-06-10T04:35:12;12.43;;;10.15;;
20283;SDS011;10301;50.832;4.080;2023-06-10T04:37:39;14.75;;;10.57;;
20283;SDS011;10301;50.832;4.080;2023-06-10T04:40:06;14.23;;;10.88;;
20283;SDS011;10301;50.832;4.080;2023-06-10T04:42:32;14.88;;;11.25;;
20283;SDS011;10301;50.832;4.080;2023-06-10T04:44:58;15.10;;;10.32;;
20283;SDS011;10301;50.832;4.080;2023-06-10T04:47:25;17.15;;;10.57;;
20283;SDS011;10301;50.832;4.080;2023-06-10T04:49:51;14.98;;;11.00;;
20283;SDS011;10301;50.832;4.080;2023-06-10T04:52:17;12.32;;;10.43;;
20283;SDS011;10301;50.832;4.080;2023-06-10T04:54:43;15.98;;;10.45;;
20283;SDS011;10301;50.832;4.080;2023-06-10T04:57:09;13.63;;;9.98;;
20283;SDS011;10301;50.832;4.080;2023-06-10T04:59:36;14.45;;;10.80;;
20283;SDS011;10301;50.832;4.080;2023-06-10T05:02:05;12.23;;;10.30;;
20283;SDS011;10301;50.832;4.080;2023-06-10T05:04:31;12.82;;;10.45;;
20283;SDS011;10301;50.832;4.080;2023-06-10T05:06:57;14.98;;;10.65;;
20283;SDS011;10301;50.832;4.080;2023-06-10T05:09:23;12.60;;;10.55;;
20283;SDS011;10301;50.832;4.080;2023-06-10T05:11:48;11.85;;;10.13;;
20283;SDS011;10301;50.832;4.080;2023-06-10T05:14:14;14.15;;;11.25;;
20283;SDS011;10301;50.832;4.080;2023-06-10T05:16:41;13.65;;;10.38;;
20283;SDS011;10301;50.832;4.080;2023-06-10T05:19:08;14.90;;;10.93;;
20283;SDS011;10301;50.832;4.080;2023-06-10T05:21:34;14.48;;;10.55;;
20283;SDS011;10301;50.832;4.080;2023-06-10T05:23:59;14.38;;;10.45;;
20283;SDS011;10301;50.832;4.080;2023-06-10T05:26:25;15.73;;;10.60;;
20283;SDS011;10301;50.832;4.080;2023-06-10T05:28:51;13.70;;;10.25;;
20283;SDS011;10301;50.832;4.080;2023-06-10T05:31:17;15.40;;;10.23;;
20283;SDS011;10301;50.832;4.080;2023-06-10T05:33:43;14.20;;;9.98;;
20283;SDS011;10301;50.832;4.080;2023-06-10T05:36:08;13.07;;;9.43;;
20283;SDS011;10301;50.832;4.080;2023-06-10T05:38:34;12.02;;;9.60;;
20283;SDS011;10301;50.832;4.080;2023-06-10T05:41:00;13.75;;;10.25;;
20283;SDS011;10301;50.832;4.080;2023-06-10T05:43:25;14.05;;;9.52;;
20283;SDS011;10301;50.832;4.080;2023-06-10T05:45:51;11.85;;;9.82;;
20283;SDS011;10301;50.832;4.080;2023-06-10T05:48:17;18.20;;;9.98;;
20283;SDS011;10301;50.832;4.080;2023-06-10T05:50:44;15.82;;;10.30;;
20283;SDS011;10301;50.832;4.080;2023-06-10T05:53:13;12.85;;;9.70;;
20283;SDS011;10301;50.832;4.080;2023-06-10T05:55:43;12.98;;;9.75;;
20283;SDS011;10301;50.832;4.080;2023-06-10T05:58:09;15.10;;;9.23;;
20283;SDS011;10301;50.832;4.080;2023-06-10T06:00:37;11.48;;;9.38;;
20283;SDS011;10301;50.832;4.080;2023-06-10T06:03:06;12.68;;;10.32;;
20283;SDS011;10301;50.832;4.080;2023-06-10T06:05:33;12.77;;;9.50;;
20283;SDS011;10301;50.832;4.080;2023-06-10T06:08:03;11.02;;;9.50;;
20283;SDS011;10301;50.832;4.080;2023-06-10T06:10:30;14.23;;;10.25;;
20283;SDS011;10301;50.832;4.080;2023-06-10T06:12:55;12.82;;;9.40;;
20283;SDS011;10301;50.832;4.080;2023-06-10T06:15:21;16.98;;;9.82;;
20283;SDS011;10301;50.832;4.080;2023-06-10T06:17:47;11.80;;;9.80;;
20283;SDS011;10301;50.832;4.080;2023-06-10T06:20:12;12.98;;;9.93;;
20283;SDS011;10301;50.832;4.080;2023-06-10T06:22:38;13.15;;;9.45;;
20283;SDS011;10301;50.832;4.080;2023-06-10T06:25:04;12.02;;;9.27;;
20283;SDS011;10301;50.832;4.080;2023-06-10T06:27:30;13.30;;;9.65;;
20283;SDS011;10301;50.832;4.080;2023-06-10T06:29:56;13.45;;;9.60;;
20283;SDS011;10301;50.832;4.080;2023-06-10T06:32:22;11.57;;;9.60;;
20283;SDS011;10301;50.832;4.080;2023-06-10T06:34:49;10.57;;;9.30;;
20283;SDS011;10301;50.832;4.080;2023-06-10T06:37:19;12.55;;;9.82;;
20283;SDS011;10301;50.832;4.080;2023-06-10T06:39:50;12.02;;;9.63;;
20283;SDS011;10301;50.832;4.080;2023-06-10T06:42:16;13.05;;;9.05;;
20283;SDS011;10301;50.832;4.080;2023-06-10T06:44:42;11.85;;;8.70;;
20283;SDS011;10301;50.832;4.080;2023-06-10T06:47:08;13.07;;;8.27;;
20283;SDS011;10301;50.832;4.080;2023-06-10T06:49:33;13.45;;;9.02;;
20283;SDS011;10301;50.832;4.080;2023-06-10T06:51:59;11.60;;;8.82;;
20283;SDS011;10301;50.832;4.080;2023-06-10T06:54:25;13.00;;;8.23;;
20283;SDS011;10301;50.832;4.080;2023-06-10T06:56:50;11.25;;;8.00;;
20283;SDS011;10301;50.832;4.080;2023-06-10T06:59:16;13.15;;;8.40;;
20283;SDS011;10301;50.832;4.080;2023-06-10T07:01:44;11.82;;;8.63;;
20283;SDS011;10301;50.832;4.080;2023-06-10T07:04:10;10.55;;;7.93;;
20283;SDS011;10301;50.832;4.080;2023-06-10T07:06:39;12.30;;;8.32;;
20283;SDS011;10301;50.832;4.080;2023-06-10T07:09:05;12.63;;;8.10;;
20283;SDS011;10301;50.832;4.080;2023-06-10T07:11:31;11.10;;;8.00;;
20283;SDS011;10301;50.832;4.080;2023-06-10T07:13:57;9.90;;;8.13;;
20283;SDS011;10301;50.832;4.080;2023-06-10T07:16:22;10.68;;;7.10;;
20283;SDS011;10301;50.832;4.080;2023-06-10T07:18:48;9.27;;;7.88;;
20283;SDS011;10301;50.832;4.080;2023-06-10T07:21:14;11.25;;;7.95;;
20283;SDS011;10301;50.832;4.080;2023-06-10T07:23:43;11.48;;;8.30;;
20283;SDS011;10301;50.832;4.080;2023-06-10T07:26:09;13.40;;;9.00;;
20283;SDS011;10301;50.832;4.080;2023-06-10T07:28:39;11.95;;;9.00;;
20283;SDS011;10301;50.832;4.080;2023-06-10T07:31:06;11.13;;;7.60;;
20283;SDS011;10301;50.832;4.080;2023-06-10T07:33:32;13.60;;;10.00;;
20283;SDS011;10301;50.832;4.080;2023-06-10T07:35:58;12.27;;;7.63;;
20283;SDS011;10301;50.832;4.080;2023-06-10T07:38:24;10.63;;;7.95;;
20283;SDS011;10301;50.832;4.080;2023-06-10T07:40:50;11.32;;;8.13;;
20283;SDS011;10301;50.832;4.080;2023-06-10T07:43:16;14.32;;;10.68;;
20283;SDS011;10301;50.832;4.080;2023-06-10T07:45:42;12.05;;;8.25;;
20283;SDS011;10301;50.832;4.080;2023-06-10T07:48:08;15.32;;;11.57;;
20283;SDS011;10301;50.832;4.080;2023-06-10T07:50:34;13.20;;;9.13;;
20283;SDS011;10301;50.832;4.080;2023-06-10T07:52:59;10.30;;;7.88;;
20283;SDS011;10301;50.832;4.080;2023-06-10T07:55:25;11.73;;;8.65;;
20283;SDS011;10301;50.832;4.080;2023-06-10T07:57:51;9.35;;;7.05;;
20283;SDS011;10301;50.832;4.080;2023-06-10T08:00:18;14.57;;;10.27;;
20283;SDS011;10301;50.832;4.080;2023-06-10T08:02:45;9.65;;;7.38;;
20283;SDS011;10301;50.832;4.080;2023-06-10T08:05:11;11.70;;;9.32;;
20283;SDS011;10301;50.832;4.080;2023-06-10T08:07:37;15.57;;;10.75;;
20283;SDS011;10301;50.832;4.080;2023-06-10T08:10:04;13.52;;;9.90;;
20283;SDS011;10301;50.832;4.080;2023-06-10T08:12:31;13.60;;;10.60;;
20283;SDS011;10301;50.832;4.080;2023-06-10T08:14:57;13.52;;;9.05;;
20283;SDS011;10301;50.832;4.080;2023-06-10T08:17:23;12.00;;;8.73;;
20283;SDS011;10301;50.832;4.080;2023-06-10T08:19:49;14.13;;;11.93;;
20283;SDS011;10301;50.832;4.080;2023-06-10T08:22:14;12.73;;;8.93;;
20283;SDS011;10301;50.832;4.080;2023-06-10T08:24:40;11.77;;;9.02;;
20283;SDS011;10301;50.832;4.080;2023-06-10T08:27:06;14.38;;;10.43;;
20283;SDS011;10301;50.832;4.080;2023-06-10T08:29:32;12.95;;;8.90;;
20283;SDS011;10301;50.832;4.080;2023-06-10T08:31:58;12.27;;;9.65;;
20283;SDS011;10301;50.832;4.080;2023-06-10T08:34:24;13.07;;;8.85;;
20283;SDS011;10301;50.832;4.080;2023-06-10T08:36:49;10.15;;;8.55;;
20283;SDS011;10301;50.832;4.080;2023-06-10T08:39:18;10.63;;;7.47;;
20283;SDS011;10301;50.832;4.080;2023-06-10T08:41:47;12.18;;;7.97;;
20283;SDS011;10301;50.832;4.080;2023-06-10T08:44:30;10.85;;;8.57;;
20283;SDS011;10301;50.832;4.080;2023-06-10T08:46:58;10.52;;;7.18;;
20283;SDS011;10301;50.832;4.080;2023-06-10T08:49:26;10.13;;;7.63;;
20283;SDS011;10301;50.832;4.080;2023-06-10T08:51:59;13.43;;;10.73;;
20283;SDS011;10301;50.832;4.080;2023-06-10T08:54:30;14.02;;;8.43;;
20283;SDS011;10301;50.832;4.080;2023-06-10T08:56:59;9.90;;;7.25;;
20283;SDS011;10301;50.832;4.080;2023-06-10T08:59:28;9.88;;;7.00;;
20283;SDS011;10301;50.832;4.080;2023-06-10T09:01:54;9.93;;;6.90;;
20283;SDS011;10301;50.832;4.080;2023-06-10T09:04:20;12.68;;;7.38;;
20283;SDS011;10301;50.832;4.080;2023-06-10T09:06:49;11.30;;;8.35;;
20283;SDS011;10301;50.832;4.080;2023-06-10T09:09:15;11.23;;;8.02;;
20283;SDS011;10301;50.832;4.080;2023-06-10T09:11:42;13.23;;;9.23;;
20283;SDS011;10301;50.832;4.080;2023-06-10T09:14:08;11.48;;;9.07;;
20283;SDS011;10301;50.832;4.080;2023-06-10T09:16:34;10.60;;;8.15;;
20283;SDS011;10301;50.832;4.080;2023-06-10T09:18:59;10.18;;;6.93;;
20283;SDS011;10301;50.832;4.080;2023-06-10T09:21:25;13.30;;;9.70;;
20283;SDS011;10301;50.832;4.080;2023-06-10T09:23:51;13.32;;;9.18;;
20283;SDS011;10301;50.832;4.080;2023-06-10T09:26:17;9.07;;;7.25;;
20283;SDS011;10301;50.832;4.080;2023-06-10T09:28:49;11.43;;;8.52;;
20283;SDS011;10301;50.832;4.080;2023-06-10T09:31:15;11.93;;;7.93;;
20283;SDS011;10301;50.832;4.080;2023-06-10T09:33:43;13.88;;;9.18;;
20283;SDS011;10301;50.832;4.080;2023-06-10T09:36:10;11.77;;;8.10;;
20283;SDS011;10301;50.832;4.080;2023-06-10T09:38:36;11.43;;;7.80;;
20283;SDS011;10301;50.832;4.080;2023-06-10T09:41:03;9.93;;;7.68;;
20283;SDS011;10301;50.832;4.080;2023-06-10T09:43:44;10.40;;;8.48;;
20283;SDS011;10301;50.832;4.080;2023-06-10T09:46:17;14.70;;;8.18;;
20283;SDS011;10301;50.832;4.080;2023-06-10T09:48:44;9.95;;;7.72;;
20283;SDS011;10301;50.832;4.080;2023-06-10T09:51:12;10.05;;;8.23;;
20283;SDS011;10301;50.832;4.080;2023-06-10T09:53:39;12.55;;;9.80;;
20283;SDS011;10301;50.832;4.080;2023-06-10T09:56:05;12.88;;;10.27;;
20283;SDS011;10301;50.832;4.080;2023-06-10T09:58:37;13.10;;;9.27;;
20283;SDS011;10301;50.832;4.080;2023-06-10T10:01:08;11.30;;;7.55;;
20283;SDS011;10301;50.832;4.080;2023-06-10T10:03:48;11.75;;;8.40;;
20283;SDS011;10301;50.832;4.080;2023-06-10T10:06:16;14.05;;;10.48;;
20283;SDS011;10301;50.832;4.080;2023-06-10T10:08:43;9.68;;;7.80;;
20283;SDS011;10301;50.832;4.080;2023-06-10T10:11:13;10.35;;;7.63;;
20283;SDS011;10301;50.832;4.080;2023-06-10T10:13:42;15.77;;;7.68;;
20283;SDS011;10301;50.832;4.080;2023-06-10T10:16:11;12.02;;;7.55;;
20283;SDS011;10301;50.832;4.080;2023-06-10T10:18:39;13.05;;;8.00;;
20283;SDS011;10301;50.832;4.080;2023-06-10T10:21:11;8.63;;;6.82;;
20283;SDS011;10301;50.832;4.080;2023-06-10T10:23:49;10.73;;;6.70;;
20283;SDS011;10301;50.832;4.080;2023-06-10T10:26:37;10.00;;;7.35;;
20283;SDS011;10301;50.832;4.080;2023-06-10T10:29:07;10.90;;;7.47;;
20283;SDS011;10301;50.832;4.080;2023-06-10T10:31:37;9.15;;;7.40;;
20283;SDS011;10301;50.832;4.080;2023-06-10T10:34:09;9.70;;;7.50;;
20283;SDS011;10301;50.832;4.080;2023-06-10T10:36:40;13.10;;;8.13;;
20283;SDS011;10301;50.832;4.080;2023-06-10T10:39:06;10.82;;;7.47;;
20283;SDS011;10301;50.832;4.080;2023-06-10T10:41:33;9.65;;;6.72;;
20283;SDS011;10301;50.832;4.080;2023-06-10T10:44:01;13.07;;;7.10;;
20283;SDS011;10301;50.832;4.080;2023-06-10T10:46:30;11.95;;;7.60;;
20283;SDS011;10301;50.832;4.080;2023-06-10T10:49:06;9.05;;;7.60;;
20283;SDS011;10301;50.832;4.080;2023-06-10T10:51:34;10.60;;;8.05;;
20283;SDS011;10301;50.832;4.080;2023-06-10T10:54:10;10.50;;;8.05;;
20283;SDS011;10301;50.832;4.080;2023-06-10T10:56:37;10.25;;;7.10;;
20283;SDS011;10301;50.832;4.080;2023-06-10T10:59:06;13.10;;;9.38;;
20283;SDS011;10301;50.832;4.080;2023-06-10T11:01:42;12.32;;;6.32;;
20283;SDS011;10301;50.832;4.080;2023-06-10T11:04:11;9.50;;;6.78;;
20283;SDS011;10301;50.832;4.080;2023-06-10T11:06:37;8.77;;;6.53;;
20283;SDS011;10301;50.832;4.080;2023-06-10T11:11:52;8.30;;;6.00;;
20283;SDS011;10301;50.832;4.080;2023-06-10T11:14:27;9.05;;;6.68;;
20283;SDS011;10301;50.832;4.080;2023-06-10T11:16:56;11.45;;;7.72;;
20283;SDS011;10301;50.832;4.080;2023-06-10T11:19:32;10.55;;;7.45;;
20283;SDS011;10301;50.832;4.080;2023-06-10T11:22:05;10.50;;;6.63;;
20283;SDS011;10301;50.832;4.080;2023-06-10T11:24:32;14.00;;;7.85;;
20283;SDS011;10301;50.832;4.080;2023-06-10T11:32:23;11.27;;;6.35;;
20283;SDS011;10301;50.832;4.080;2023-06-10T11:34:53;8.68;;;6.68;;
20283;SDS011;10301;50.832;4.080;2023-06-10T11:37:20;11.15;;;6.90;;
20283;SDS011;10301;50.832;4.080;2023-06-10T11:39:46;11.98;;;7.50;;
20283;SDS011;10301;50.832;4.080;2023-06-10T11:42:12;11.23;;;6.63;;
20283;SDS011;10301;50.832;4.080;2023-06-10T11:44:47;9.80;;;7.07;;
20283;SDS011;10301;50.832;4.080;2023-06-10T11:47:16;10.73;;;7.65;;
20283;SDS011;10301;50.832;4.080;2023-06-10T11:49:46;9.05;;;7.32;;
20283;SDS011;10301;50.832;4.080;2023-06-10T11:52:30;8.60;;;5.78;;
20283;SDS011;10301;50.832;4.080;2023-06-10T11:55:04;13.38;;;7.35;;
20283;SDS011;10301;50.832;4.080;2023-06-10T11:57:33;12.60;;;7.00;;
20283;SDS011;10301;50.832;4.080;2023-06-10T12:00:03;7.88;;;5.65;;
20283;SDS011;10301;50.832;4.080;2023-06-10T12:02:30;8.70;;;7.00;;
20283;SDS011;10301;50.832;4.080;2023-06-10T12:05:09;14.05;;;7.78;;
20283;SDS011;10301;50.832;4.080;2023-06-10T12:07:35;8.07;;;6.35;;
20283;SDS011;10301;50.832;4.080;2023-06-10T12:10:01;11.93;;;7.45;;
20283;SDS011;10301;50.832;4.080;2023-06-10T12:12:27;10.23;;;7.50;;
20283;SDS011;10301;50.832;4.080;2023-06-10T12:14:54;9.43;;;7.78;;
20283;SDS011;10301;50.832;4.080;2023-06-10T12:17:43;9.60;;;6.35;;
20283;SDS011;10301;50.832;4.080;2023-06-10T12:20:08;14.05;;;6.38;;
20283;SDS011;10301;50.832;4.080;2023-06-10T12:22:49;8.98;;;6.55;;
20283;SDS011;10301;50.832;4.080;2023-06-10T12:25:14;7.78;;;5.80;;
20283;SDS011;10301;50.832;4.080;2023-06-10T12:27:41;8.05;;;6.63;;
20283;SDS011;10301;50.832;4.080;2023-06-10T12:30:22;11.48;;;6.43;;
20283;SDS011;10301;50.832;4.080;2023-06-10T12:32:49;8.93;;;5.85;;
20283;SDS011;10301;50.832;4.080;2023-06-10T12:35:17;8.60;;;6.18;;
20283;SDS011;10301;50.832;4.080;2023-06-10T12:37:54;10.15;;;6.07;;
20283;SDS011;10301;50.832;4.080;2023-06-10T12:40:26;9.13;;;6.32;;
20283;SDS011;10301;50.832;4.080;2023-06-10T12:42:53;8.05;;;6.20;;
20283;SDS011;10301;50.832;4.080;2023-06-10T12:45:30;8.00;;;5.72;;
20283;SDS011;10301;50.832;4.080;2023-06-10T12:50:34;8.10;;;5.90;;
20283;SDS011;10301;50.832;4.080;2023-06-10T12:53:01;9.02;;;5.90;;
20283;SDS011;10301;50.832;4.080;2023-06-10T12:55:26;7.72;;;6.07;;
20283;SDS011;10301;50.832;4.080;2023-06-10T12:57:53;11.68;;;6.47;;
20283;SDS011;10301;50.832;4.080;2023-06-10T13:00:20;12.43;;;6.40;;
20283;SDS011;10301;50.832;4.080;2023-06-10T13:02:51;11.55;;;6.07;;
20283;SDS011;10301;50.832;4.080;2023-06-10T13:05:18;9.25;;;6.78;;
20283;SDS011;10301;50.832;4.080;2023-06-10T13:07:44;8.77;;;6.15;;
20283;SDS011;10301;50.832;4.080;2023-06-10T13:10:09;9.48;;;6.78;;
20283;SDS011;10301;50.832;4.080;2023-06-10T13:12:35;12.82;;;6.93;;
20283;SDS011;10301;50.832;4.080;2023-06-10T13:15:02;8.63;;;6.05;;
20283;SDS011;10301;50.832;4.080;2023-06-10T13:17:28;6.90;;;6.10;;
20283;SDS011;10301;50.832;4.080;2023-06-10T13:19:53;10.07;;;6.60;;
20283;SDS011;10301;50.832;4.080;2023-06-10T13:22:19;9.55;;;6.55;;
20283;SDS011;10301;50.832;4.080;2023-06-10T13:24:45;8.40;;;6.15;;
20283;SDS011;10301;50.832;4.080;2023-06-10T13:27:11;8.40;;;6.35;;
20283;SDS011;10301;50.832;4.080;2023-06-10T13:29:39;9.00;;;6.80;;
20283;SDS011;10301;50.832;4.080;2023-06-10T13:32:05;9.35;;;6.70;;
20283;SDS011;10301;50.832;4.080;2023-06-10T13:34:31;11.77;;;6.68;;
20283;SDS011;10301;50.832;4.080;2023-06-10T13:36:57;10.10;;;6.22;;
20283;SDS011;10301;50.832;4.080;2023-06-10T13:39:23;10.13;;;6.20;;
20283;SDS011;10301;50.832;4.080;2023-06-10T13:41:49;8.60;;;6.53;;
20283;SDS011;10301;50.832;4.080;2023-06-10T13:44:14;11.50;;;6.90;;
20283;SDS011;10301;50.832;4.080;2023-06-10T13:46:40;10.05;;;6.97;;
20283;SDS011;10301;50.832;4.080;2023-06-10T13:49:06;10.55;;;6.18;;
20283;SDS011;10301;50.832;4.080;2023-06-10T13:51:31;11.30;;;6.75;;
20283;SDS011;10301;50.832;4.080;2023-06-10T13:53:57;7.45;;;6.00;;
20283;SDS011;10301;50.832;4.080;2023-06-10T13:56:22;10.68;;;6.65;;
20283;SDS011;10301;50.832;4.080;2023-06-10T13:58:48;7.78;;;6.22;;
20283;SDS011;10301;50.832;4.080;2023-06-10T14:01:14;9.02;;;6.38;;
20283;SDS011;10301;50.832;4.080;2023-06-10T14:03:40;10.68;;;6.35;;
20283;SDS011;10301;50.832;4.080;2023-06-10T14:06:05;9.52;;;6.60;;
20283;SDS011;10301;50.832;4.080;2023-06-10T14:08:31;7.78;;;6.53;;
20283;SDS011;10301;50.832;4.080;2023-06-10T14:10:57;10.43;;;6.20;;
20283;SDS011;10301;50.832;4.080;2023-06-10T14:13:23;11.43;;;6.32;;
20283;SDS011;10301;50.832;4.080;2023-06-10T14:15:48;9.80;;;7.00;;
20283;SDS011;10301;50.832;4.080;2023-06-10T14:18:14;7.93;;;6.70;;
20283;SDS011;10301;50.832;4.080;2023-06-10T14:20:40;9.48;;;6.72;;
20283;SDS011;10301;50.832;4.080;2023-06-10T14:23:06;9.48;;;6.75;;
20283;SDS011;10301;50.832;4.080;2023-06-10T14:25:31;9.02;;;7.00;;
20283;SDS011;10301;50.832;4.080;2023-06-10T14:27:57;8.00;;;6.57;;
20283;SDS011;10301;50.832;4.080;2023-06-10T14:30:23;9.85;;;6.93;;
20283;SDS011;10301;50.832;4.080;2023-06-10T14:32:49;8.25;;;6.97;;
20283;SDS011;10301;50.832;4.080;2023-06-10T14:35:14;8.27;;;6.50;;
20283;SDS011;10301;50.832;4.080;2023-06-10T14:37:40;8.93;;;6.78;;
20283;SDS011;10301;50.832;4.080;2023-06-10T14:40:06;10.10;;;6.63;;
20283;SDS011;10301;50.832;4.080;2023-06-10T14:42:32;8.77;;;6.70;;
20283;SDS011;10301;50.832;4.080;2023-06-10T14:44:58;7.97;;;6.60;;
20283;SDS011;10301;50.832;4.080;2023-06-10T14:47:23;13.00;;;6.80;;
20283;SDS011;10301;50.832;4.080;2023-06-10T14:49:50;8.30;;;6.95;;
20283;SDS011;10301;50.832;4.080;2023-06-10T14:52:16;10.18;;;6.82;;
20283;SDS011;10301;50.832;4.080;2023-06-10T14:54:41;10.88;;;6.20;;